createdAt,value
2023-07-21T00:00:13.958Z,23.80
2023-07-21T00:02:46.273Z,23.80
2023-07-21T00:05:15.233Z,23.70
2023-07-21T00:07:45.868Z,23.70
2023-07-21T00:10:13.319Z,23.70
2023-07-21T00:12:48.386Z,23.70
2023-07-21T00:15:18.573Z,23.60
2023-07-21T00:17:52.472Z,23.60
2023-07-21T00:20:23.894Z,23.60
2023-07-21T00:22:53.998Z,23.60
2023-07-21T00:25:26.233Z,23.50
2023-07-21T00:27:53.576Z,23.50
2023-07-21T00:30:23.292Z,23.40
2023-07-21T00:32:53.799Z,23.40
2023-07-21T00:35:25.620Z,23.40
2023-07-21T00:37:59.278Z,23.40
2023-07-21T00:40:29.105Z,23.30
2023-07-21T00:42:59.109Z,23.30
2023-07-21T00:45:26.817Z,23.30
2023-07-21T00:47:57.190Z,23.30
2023-07-21T00:50:27.604Z,23.30
2023-07-21T00:52:57.017Z,23.20
2023-07-21T00:55:27.887Z,23.20
2023-07-21T00:57:57.752Z,23.20
2023-07-21T01:00:25.685Z,23.20
2023-07-21T01:02:57.958Z,23.10
2023-07-21T01:05:28.927Z,23.10
2023-07-21T01:07:59.822Z,23.10
2023-07-21T01:10:28.494Z,23.10
2023-07-21T01:12:58.772Z,23.00
2023-07-21T01:15:27.909Z,23.10
2023-07-21T01:17:56.603Z,23.00
2023-07-21T01:20:25.971Z,23.00
2023-07-21T01:23:04.943Z,23.00
2023-07-21T01:25:33.739Z,22.90
2023-07-21T01:28:06.176Z,23.00
2023-07-21T01:30:35.061Z,22.90
2023-07-21T01:33:05.555Z,22.90
2023-07-21T01:35:35.880Z,22.90
2023-07-21T01:38:04.814Z,22.90
2023-07-21T01:40:33.049Z,22.80
2023-07-21T01:43:00.673Z,22.80
2023-07-21T01:45:31.941Z,22.80
2023-07-21T01:48:04.218Z,22.80
2023-07-21T01:50:36.982Z,22.80
2023-07-21T01:53:13.907Z,22.80
2023-07-21T01:55:47.841Z,22.80
2023-07-21T01:58:20.747Z,22.80
2023-07-21T02:00:51.997Z,22.80
2023-07-21T02:03:20.804Z,22.80
2023-07-21T02:05:50.789Z,22.80
2023-07-21T02:08:22.182Z,22.80
2023-07-21T02:10:53.279Z,22.80
2023-07-21T02:13:22.971Z,22.80
2023-07-21T02:15:50.370Z,22.80
2023-07-21T02:18:17.642Z,22.80
2023-07-21T02:20:45.067Z,22.70
2023-07-21T02:23:13.538Z,22.80
2023-07-21T02:25:41.993Z,22.70
2023-07-21T02:28:09.367Z,22.70
2023-07-21T02:30:40.599Z,22.70
2023-07-21T02:33:08.012Z,22.70
2023-07-21T02:35:35.277Z,22.70
2023-07-21T02:38:06.409Z,22.70
2023-07-21T02:40:33.662Z,22.70
2023-07-21T02:43:01.067Z,22.70
2023-07-21T02:45:28.449Z,22.70
2023-07-21T02:47:55.719Z,22.60
2023-07-21T02:50:24.472Z,22.60
2023-07-21T02:52:51.767Z,22.60
2023-07-21T02:55:20.441Z,22.60
2023-07-21T02:57:50.142Z,22.60
2023-07-21T03:00:17.590Z,22.60
2023-07-21T03:02:47.186Z,22.60
2023-07-21T03:05:16.651Z,22.50
2023-07-21T03:07:43.930Z,22.50
2023-07-21T03:10:12.487Z,22.50
2023-07-21T03:12:39.920Z,22.50
2023-07-21T03:15:07.697Z,22.50
2023-07-21T03:17:38.046Z,22.50
2023-07-21T03:20:17.474Z,22.50
2023-07-21T03:22:48.501Z,22.50
2023-07-21T03:25:15.985Z,22.40
2023-07-21T03:27:44.295Z,22.40
2023-07-21T03:30:11.792Z,22.40
2023-07-21T03:32:39.540Z,22.40
2023-07-21T03:35:07.459Z,22.30
2023-07-21T03:37:38.037Z,22.30
2023-07-21T03:40:07.625Z,22.30
2023-07-21T03:42:37.675Z,22.30
2023-07-21T03:45:08.140Z,22.30
2023-07-21T03:47:36.791Z,22.30
2023-07-21T03:50:09.134Z,22.30
2023-07-21T03:52:36.473Z,22.30
2023-07-21T03:55:04.540Z,22.30
2023-07-21T03:57:31.889Z,22.30
2023-07-21T04:00:01.680Z,22.30
2023-07-21T04:02:31.171Z,22.20
2023-07-21T04:05:11.666Z,22.20
2023-07-21T04:07:38.959Z,22.20
2023-07-21T04:10:06.859Z,22.20
2023-07-21T04:12:36.765Z,22.20
2023-07-21T04:15:09.420Z,22.20
2023-07-21T04:17:36.714Z,22.20
2023-07-21T04:20:05.745Z,22.20
2023-07-21T04:22:34.451Z,22.20
2023-07-21T04:25:04.659Z,22.20
2023-07-21T04:27:31.962Z,22.20
2023-07-21T04:30:02.151Z,22.20
2023-07-21T04:32:29.473Z,22.10
2023-07-21T04:34:56.738Z,22.10
2023-07-21T04:37:24.014Z,22.10
2023-07-21T04:39:51.463Z,22.10
2023-07-21T04:42:18.879Z,22.10
2023-07-21T04:44:51.197Z,22.10
2023-07-21T04:47:18.574Z,22.10
2023-07-21T04:49:49.533Z,22.10
2023-07-21T04:52:16.901Z,22.10
2023-07-21T04:54:46.357Z,22.10
2023-07-21T04:57:16.153Z,22.00
2023-07-21T04:59:44.621Z,22.00
2023-07-21T05:02:11.951Z,22.10
2023-07-21T05:04:44.070Z,22.10
2023-07-21T05:07:13.942Z,22.10
2023-07-21T05:09:41.254Z,22.00
2023-07-21T05:12:09.102Z,22.00
2023-07-21T05:14:38.816Z,22.00
2023-07-21T05:17:08.774Z,22.00
2023-07-21T05:19:39.104Z,22.00
2023-07-21T05:22:07.043Z,21.90
2023-07-21T05:24:36.840Z,21.90
2023-07-21T05:27:04.178Z,21.90
2023-07-21T05:29:35.733Z,21.90
2023-07-21T05:32:04.984Z,21.90
2023-07-21T05:34:35.149Z,21.90
2023-07-21T05:37:02.718Z,21.90
2023-07-21T05:39:33.027Z,21.90
2023-07-21T05:42:02.656Z,21.90
2023-07-21T05:44:31.363Z,21.90
2023-07-21T05:46:59.355Z,21.90
2023-07-21T05:49:27.102Z,21.90
2023-07-21T05:51:54.530Z,21.90
2023-07-21T05:54:21.866Z,21.80
2023-07-21T05:56:55.724Z,21.90
2023-07-21T05:59:25.461Z,21.90
2023-07-21T06:02:01.964Z,21.90
2023-07-21T06:04:32.237Z,21.90
2023-07-21T06:06:59.520Z,21.90
2023-07-21T06:09:29.937Z,21.90
2023-07-21T06:11:59.967Z,22.00
2023-07-21T06:14:27.261Z,21.90
2023-07-21T06:16:54.839Z,21.90
2023-07-21T06:19:22.138Z,22.00
2023-07-21T06:21:49.860Z,22.00
2023-07-21T06:24:17.191Z,22.00
2023-07-21T06:26:44.526Z,22.00
2023-07-21T06:29:14.286Z,22.00
2023-07-21T06:31:41.594Z,22.00
2023-07-21T06:34:08.840Z,22.10
2023-07-21T06:36:36.519Z,22.00
2023-07-21T06:39:06.328Z,22.00
2023-07-21T06:41:33.638Z,22.10
2023-07-21T06:44:03.765Z,22.00
2023-07-21T06:46:31.072Z,22.00
2023-07-21T06:49:00.002Z,22.10
2023-07-21T06:51:27.817Z,22.10
2023-07-21T06:53:55.248Z,22.10
2023-07-21T06:56:22.515Z,22.10
2023-07-21T06:58:49.768Z,22.10
2023-07-21T07:01:19.455Z,22.10
2023-07-21T07:03:48.612Z,22.10
2023-07-21T07:06:16.059Z,22.20
2023-07-21T07:08:43.316Z,22.10
2023-07-21T07:11:13.120Z,22.20
2023-07-21T07:13:42.859Z,22.20
2023-07-21T07:16:10.465Z,22.20
2023-07-21T07:18:37.788Z,22.20
2023-07-21T07:21:09.433Z,22.20
2023-07-21T07:23:36.775Z,22.20
2023-07-21T07:26:06.489Z,22.30
2023-07-21T07:28:33.812Z,22.30
2023-07-21T07:31:07.668Z,22.30
2023-07-21T07:33:35.036Z,22.40
2023-07-21T07:36:04.794Z,22.50
2023-07-21T07:38:32.151Z,22.50
2023-07-21T07:41:07.089Z,22.60
2023-07-21T07:43:34.528Z,22.60
2023-07-21T07:46:02.463Z,22.70
2023-07-21T07:48:34.481Z,22.80
2023-07-21T07:51:08.764Z,22.80
2023-07-21T07:53:37.009Z,22.90
2023-07-21T07:56:05.075Z,22.90
2023-07-21T07:58:35.399Z,23.00
2023-07-21T08:01:06.102Z,23.00
2023-07-21T08:03:33.767Z,23.10
2023-07-21T08:06:01.315Z,23.10
2023-07-21T08:08:29.345Z,23.10
2023-07-21T08:10:59.174Z,23.20
2023-07-21T08:13:26.453Z,23.30
2023-07-21T08:15:56.289Z,23.30
2023-07-21T08:18:23.812Z,23.40
2023-07-21T08:20:54.658Z,23.40
2023-07-21T08:23:29.505Z,23.50
2023-07-21T08:25:59.964Z,23.60
2023-07-21T08:28:27.235Z,23.60
2023-07-21T08:30:58.808Z,23.70
2023-07-21T08:33:32.662Z,23.80
2023-07-21T08:35:59.950Z,23.80
2023-07-21T08:38:27.278Z,23.90
2023-07-21T08:41:12.401Z,23.90
2023-07-21T08:43:40.322Z,24.00
2023-07-21T08:46:09.593Z,24.10
2023-07-21T08:48:40.032Z,24.20
2023-07-21T08:51:07.439Z,24.20
2023-07-21T08:53:34.703Z,24.20
2023-07-21T08:56:03.108Z,24.30
2023-07-21T08:58:31.418Z,24.40
2023-07-21T09:00:59.404Z,24.40
2023-07-21T09:03:32.910Z,24.50
2023-07-21T09:06:01.725Z,24.60
2023-07-21T09:08:32.928Z,24.60
2023-07-21T09:11:04.130Z,24.70
2023-07-21T09:13:33.517Z,24.70
2023-07-21T09:16:06.800Z,24.70
2023-07-21T09:18:47.010Z,24.80
2023-07-21T09:21:21.926Z,24.80
2023-07-21T09:23:50.209Z,24.90
2023-07-21T09:26:25.234Z,24.90
2023-07-21T09:28:53.352Z,25.00
2023-07-21T09:31:32.997Z,25.00
2023-07-21T09:34:08.349Z,25.10
2023-07-21T09:36:43.651Z,25.10
2023-07-21T09:39:15.983Z,25.20
2023-07-21T09:41:45.327Z,25.20
2023-07-21T09:44:16.097Z,25.30
2023-07-21T09:46:46.000Z,25.30
2023-07-21T09:49:15.797Z,25.40
2023-07-21T09:51:50.530Z,25.50
2023-07-21T09:54:21.972Z,25.50
2023-07-21T09:56:50.832Z,25.60
2023-07-21T09:59:19.467Z,25.70
2023-07-21T10:01:50.699Z,25.70
2023-07-21T10:04:19.466Z,25.80
2023-07-21T10:06:46.991Z,25.90
2023-07-21T10:09:17.300Z,26.00
2023-07-21T10:11:45.525Z,26.10
2023-07-21T10:14:32.347Z,26.10
2023-07-21T10:17:04.032Z,26.30
2023-07-21T10:19:39.047Z,26.30
2023-07-21T10:22:09.586Z,26.40
2023-07-21T10:24:44.990Z,26.50
2023-07-21T10:27:22.079Z,26.60
2023-07-21T10:29:57.355Z,26.60
2023-07-21T10:32:25.835Z,26.70
2023-07-21T10:34:53.452Z,26.80
2023-07-21T10:37:23.059Z,26.80
2023-07-21T10:39:56.297Z,26.90
2023-07-21T10:42:23.783Z,26.90
2023-07-21T10:44:53.547Z,27.00
2023-07-21T10:47:22.622Z,27.00
2023-07-21T10:49:54.885Z,27.10
2023-07-21T10:52:23.540Z,27.10
2023-07-21T10:54:56.884Z,27.20
2023-07-21T10:57:24.212Z,27.20
2023-07-21T10:59:51.844Z,27.30
2023-07-21T11:02:26.213Z,27.30
2023-07-21T11:04:53.643Z,27.30
2023-07-21T11:07:20.981Z,27.40
2023-07-21T11:09:48.910Z,27.30
2023-07-21T11:12:18.486Z,27.30
2023-07-21T11:14:45.839Z,27.20
2023-07-21T11:17:13.228Z,27.20
2023-07-21T11:19:40.782Z,27.10
2023-07-21T11:22:08.478Z,27.10
2023-07-21T11:24:36.016Z,27.10
2023-07-21T11:27:12.312Z,27.00
2023-07-21T11:29:45.588Z,27.00
2023-07-21T11:32:25.566Z,26.90
2023-07-21T11:35:04.108Z,26.80
2023-07-21T11:37:45.966Z,26.70
2023-07-21T11:40:19.971Z,26.70
2023-07-21T11:42:54.114Z,26.60
2023-07-21T11:45:34.797Z,26.50
2023-07-21T11:48:14.322Z,26.30
2023-07-21T11:50:53.685Z,26.10
2023-07-21T11:53:25.124Z,25.90
2023-07-21T11:55:55.496Z,25.80
2023-07-21T11:58:23.030Z,25.60
2023-07-21T12:00:50.710Z,25.50
2023-07-21T12:03:23.179Z,25.30
2023-07-21T12:05:50.910Z,25.20
2023-07-21T12:08:22.850Z,25.20
2023-07-21T12:10:52.581Z,25.10
2023-07-21T12:13:22.288Z,25.00
2023-07-21T12:15:50.540Z,25.00
2023-07-21T12:18:18.384Z,24.90
2023-07-21T12:20:45.678Z,24.90
2023-07-21T12:23:16.745Z,24.90
2023-07-21T12:25:46.752Z,24.90
2023-07-21T12:28:14.053Z,24.90
2023-07-21T12:30:41.570Z,24.80
2023-07-21T12:33:11.667Z,24.80
2023-07-21T12:35:39.087Z,24.80
2023-07-21T12:38:06.756Z,24.80
2023-07-21T12:40:34.112Z,24.80
2023-07-21T12:43:01.424Z,24.80
2023-07-21T12:45:28.798Z,24.80
2023-07-21T12:47:56.092Z,24.90
2023-07-21T12:50:23.450Z,24.90
2023-07-21T12:52:55.133Z,24.90
2023-07-21T12:55:25.025Z,24.90
2023-07-21T12:57:52.941Z,24.90
2023-07-21T13:00:20.225Z,24.90
2023-07-21T13:02:47.682Z,24.90
2023-07-21T13:05:15.094Z,24.90
2023-07-21T13:07:45.654Z,24.90
2023-07-21T13:10:12.925Z,25.00
2023-07-21T13:12:42.304Z,25.00
2023-07-21T13:15:10.042Z,25.00
2023-07-21T13:17:37.335Z,24.90
2023-07-21T13:20:05.723Z,25.00
2023-07-21T13:22:33.078Z,25.00
2023-07-21T13:25:04.977Z,25.00
2023-07-21T13:27:32.324Z,25.00
2023-07-21T13:29:59.866Z,25.00
2023-07-21T13:32:27.217Z,25.00
2023-07-21T13:34:54.529Z,25.00
2023-07-21T13:37:21.798Z,25.00
2023-07-21T13:39:51.810Z,25.00
2023-07-21T13:42:19.217Z,25.00
2023-07-21T13:44:46.591Z,25.00
2023-07-21T13:47:17.479Z,25.00
2023-07-21T13:49:45.083Z,25.00
2023-07-21T13:52:14.802Z,25.10
2023-07-21T13:54:42.075Z,25.10
2023-07-21T13:57:11.709Z,25.20
2023-07-21T13:59:39.103Z,25.20
2023-07-21T14:02:06.764Z,25.20
2023-07-21T14:04:36.554Z,25.30
2023-07-21T14:07:04.756Z,25.30
2023-07-21T14:09:32.126Z,25.30
2023-07-21T14:12:01.654Z,25.40
2023-07-21T14:14:31.432Z,25.40
2023-07-21T14:16:58.797Z,25.40
2023-07-21T14:19:26.519Z,25.40
2023-07-21T14:21:53.794Z,25.50
2023-07-21T14:24:21.378Z,25.50
2023-07-21T14:26:51.569Z,25.50
2023-07-21T14:29:18.847Z,25.50
2023-07-21T14:31:46.118Z,25.50
2023-07-21T14:34:13.458Z,25.60
2023-07-21T14:36:43.364Z,25.60
2023-07-21T14:39:10.897Z,25.60
2023-07-21T14:41:38.210Z,25.60
2023-07-21T14:44:07.751Z,25.70
2023-07-21T14:46:35.134Z,25.70
2023-07-21T14:49:05.550Z,25.70
2023-07-21T14:51:33.357Z,25.70
2023-07-21T14:54:04.007Z,25.70
2023-07-21T14:56:31.308Z,25.70
2023-07-21T14:58:58.612Z,25.70
2023-07-21T15:01:26.065Z,25.70
2023-07-21T15:03:53.416Z,25.70
2023-07-21T15:06:21.577Z,25.70
2023-07-21T15:08:49.018Z,25.70
2023-07-21T15:11:20.718Z,25.70
2023-07-21T15:13:48.082Z,25.70
2023-07-21T15:16:20.369Z,25.70
2023-07-21T15:18:48.300Z,25.70
2023-07-21T15:21:15.545Z,25.70
2023-07-21T15:23:48.024Z,25.80
2023-07-21T15:26:19.639Z,25.80
2023-07-21T15:28:46.947Z,25.80
2023-07-21T15:31:14.853Z,25.80
2023-07-21T15:33:43.614Z,25.80
2023-07-21T15:36:10.880Z,25.80
2023-07-21T15:38:38.135Z,25.80
2023-07-21T15:41:05.545Z,25.80
2023-07-21T15:43:35.514Z,25.80
2023-07-21T15:46:05.047Z,25.80
2023-07-21T15:48:33.036Z,25.80
2023-07-21T15:51:00.587Z,25.80
2023-07-21T15:53:28.204Z,25.80
2023-07-21T15:55:58.213Z,25.80
2023-07-21T15:58:25.558Z,25.80
2023-07-21T16:01:05.530Z,25.80
2023-07-21T16:03:32.807Z,25.80
2023-07-21T16:06:04.771Z,25.80
2023-07-21T16:08:32.612Z,25.80
2023-07-21T16:11:01.893Z,25.80
2023-07-21T16:13:29.287Z,25.80
2023-07-21T16:16:04.133Z,25.80
2023-07-21T16:18:31.848Z,25.80
2023-07-21T16:20:59.712Z,25.80
2023-07-21T16:23:27.422Z,25.80
2023-07-21T16:25:57.175Z,25.80
2023-07-21T16:28:26.649Z,25.80
2023-07-21T16:30:55.225Z,25.80
2023-07-21T16:33:22.546Z,25.80
2023-07-21T16:35:54.115Z,25.80
2023-07-21T16:38:21.362Z,25.80
2023-07-21T16:40:51.235Z,25.80
2023-07-21T16:43:18.490Z,25.80
2023-07-21T16:45:51.175Z,25.80
2023-07-21T16:48:18.614Z,25.80
2023-07-21T16:50:48.307Z,25.80
2023-07-21T16:53:19.250Z,25.80
2023-07-21T16:55:47.167Z,25.80
2023-07-21T16:58:17.602Z,25.80
2023-07-21T17:00:45.500Z,25.80
2023-07-21T17:03:12.985Z,25.80
2023-07-21T17:05:43.350Z,25.80
2023-07-21T17:08:10.733Z,25.80
2023-07-21T17:10:38.197Z,25.80
2023-07-21T17:13:05.561Z,25.80
2023-07-21T17:15:33.505Z,25.80
2023-07-21T17:18:01.269Z,25.80
2023-07-21T17:20:28.827Z,25.70
2023-07-21T17:22:56.525Z,25.70
2023-07-21T17:25:27.909Z,25.70
2023-07-21T17:27:57.407Z,25.70
2023-07-21T17:30:24.697Z,25.70
2023-07-21T17:32:52.160Z,25.60
2023-07-21T17:35:21.872Z,25.60
2023-07-21T17:37:49.214Z,25.60
2023-07-21T17:40:17.468Z,25.50
2023-07-21T17:42:44.784Z,25.50
2023-07-21T17:45:14.801Z,25.50
2023-07-21T17:47:44.166Z,25.50
2023-07-21T17:50:14.722Z,25.40
2023-07-21T17:52:44.358Z,25.40
2023-07-21T17:55:17.657Z,25.40
2023-07-21T17:57:45.090Z,25.40
2023-07-21T18:00:16.057Z,25.40
2023-07-21T18:02:43.538Z,25.30
2023-07-21T18:05:11.057Z,25.30
2023-07-21T18:07:38.618Z,25.30
2023-07-21T18:10:06.220Z,25.30
2023-07-21T18:12:33.545Z,25.30
2023-07-21T18:15:03.508Z,25.30
2023-07-21T18:17:33.201Z,25.30
2023-07-21T18:20:03.910Z,25.30
2023-07-21T18:22:33.318Z,25.30
2023-07-21T18:25:03.844Z,25.30
2023-07-21T18:27:36.828Z,25.30
2023-07-21T18:30:09.987Z,25.20
2023-07-21T18:32:43.371Z,25.20
2023-07-21T18:37:40.945Z,25.20
2023-07-21T18:40:16.548Z,25.20
2023-07-21T18:42:55.541Z,25.10
2023-07-21T18:45:25.141Z,25.10
2023-07-21T18:47:52.493Z,25.10
2023-07-21T18:50:23.081Z,25.00
2023-07-21T18:52:54.178Z,25.00
2023-07-21T18:55:23.049Z,24.90
2023-07-21T18:57:50.646Z,25.00
2023-07-21T19:00:18.049Z,24.90
2023-07-21T19:02:47.590Z,24.90
2023-07-21T19:05:15.113Z,24.80
2023-07-21T19:07:42.687Z,24.80
2023-07-21T19:10:12.870Z,24.80
2023-07-21T19:12:40.144Z,24.80
2023-07-21T19:15:08.649Z,24.70
2023-07-21T19:17:36.135Z,24.70
2023-07-21T19:20:04.305Z,24.60
2023-07-21T19:22:31.588Z,24.60
2023-07-21T19:25:01.330Z,24.60
2023-07-21T19:27:29.535Z,24.50
2023-07-21T19:29:56.861Z,24.50
2023-07-21T19:32:26.785Z,24.50
2023-07-21T19:34:54.106Z,24.50
2023-07-21T19:37:21.400Z,24.40
2023-07-21T19:39:48.641Z,24.40
2023-07-21T19:42:16.086Z,24.40
2023-07-21T19:44:48.292Z,24.40
2023-07-21T19:47:18.153Z,24.40
2023-07-21T19:49:45.444Z,24.30
2023-07-21T19:52:12.703Z,24.30
2023-07-21T19:54:41.986Z,24.30
2023-07-21T19:57:09.343Z,24.20
2023-07-21T19:59:38.842Z,24.20
2023-07-21T20:02:06.921Z,24.20
2023-07-21T20:04:37.099Z,24.20
2023-07-21T20:07:04.550Z,24.20
2023-07-21T20:09:36.769Z,24.10
2023-07-21T20:12:04.317Z,24.10
2023-07-21T20:14:31.578Z,24.10
2023-07-21T20:17:03.611Z,24.10
2023-07-21T20:19:30.909Z,24.00
2023-07-21T20:21:58.214Z,24.00
2023-07-21T20:24:25.607Z,24.00
2023-07-21T20:26:55.308Z,24.00
2023-07-21T20:29:24.954Z,24.00
2023-07-21T20:31:54.589Z,24.00
2023-07-21T20:34:21.946Z,23.90
2023-07-21T20:36:49.261Z,23.90
2023-07-21T20:39:16.692Z,23.90
2023-07-21T20:41:46.088Z,23.90
2023-07-21T20:44:15.497Z,23.80
2023-07-21T20:46:45.069Z,23.80
2023-07-21T20:49:12.327Z,23.80
2023-07-21T20:51:41.844Z,23.80
2023-07-21T20:54:11.584Z,23.70
2023-07-21T20:56:41.470Z,23.70
2023-07-21T20:59:08.769Z,23.70
2023-07-21T21:01:38.509Z,23.70
2023-07-21T21:04:08.045Z,23.70
2023-07-21T21:06:35.981Z,23.70
2023-07-21T21:09:05.506Z,23.60
2023-07-21T21:11:32.923Z,23.60
2023-07-21T21:14:01.164Z,23.60
2023-07-21T21:16:30.983Z,23.60
2023-07-21T21:19:00.937Z,23.60
2023-07-21T21:21:28.368Z,23.60
2023-07-21T21:24:00.439Z,23.50
2023-07-21T21:26:27.963Z,23.50
2023-07-21T21:28:55.528Z,23.50
2023-07-21T21:31:22.858Z,23.50
2023-07-21T21:33:54.724Z,23.40
2023-07-21T21:36:22.010Z,23.40
2023-07-21T21:38:49.258Z,23.40
2023-07-21T21:41:17.429Z,23.40
2023-07-21T21:43:44.731Z,23.30
2023-07-21T21:46:14.921Z,23.30
2023-07-21T21:48:45.173Z,23.30
2023-07-21T21:51:14.661Z,23.30
2023-07-21T21:53:41.956Z,23.30
2023-07-21T21:56:11.397Z,23.30
2023-07-21T21:58:41.013Z,23.30
2023-07-21T22:01:10.551Z,23.30
2023-07-21T22:03:42.887Z,23.30
2023-07-21T22:06:12.266Z,23.20
2023-07-21T22:08:40.008Z,23.20
2023-07-21T22:11:09.945Z,23.20
2023-07-21T22:13:39.723Z,23.20
2023-07-21T22:16:11.965Z,23.20
2023-07-21T22:18:39.484Z,23.10
2023-07-21T22:21:06.802Z,23.10
2023-07-21T22:23:34.093Z,23.10
2023-07-21T22:26:08.398Z,23.10
2023-07-21T22:28:38.170Z,23.10
2023-07-21T22:31:16.352Z,23.10
2023-07-21T22:33:48.588Z,23.10
2023-07-21T22:36:18.602Z,23.00
2023-07-21T22:38:45.933Z,23.00
2023-07-21T22:41:13.384Z,23.00
2023-07-21T22:43:40.851Z,23.00
2023-07-21T22:46:08.253Z,23.00
2023-07-21T22:48:35.557Z,23.00
2023-07-21T22:51:11.648Z,22.90
2023-07-21T22:53:39.816Z,22.90
2023-07-21T22:56:08.346Z,22.90
2023-07-21T22:58:36.354Z,22.90
2023-07-21T23:01:08.190Z,22.90
2023-07-21T23:03:36.329Z,22.80
2023-07-21T23:06:06.714Z,22.80
2023-07-21T23:08:34.472Z,22.80
2023-07-21T23:11:02.105Z,22.80
2023-07-21T23:13:29.435Z,22.70
2023-07-21T23:15:59.876Z,22.70
2023-07-21T23:18:29.399Z,22.70
2023-07-21T23:20:56.665Z,22.70
2023-07-21T23:23:23.919Z,22.70
2023-07-21T23:25:52.319Z,22.70
2023-07-21T23:28:19.585Z,22.70
2023-07-21T23:30:47.099Z,22.60
2023-07-21T23:33:14.397Z,22.60
2023-07-21T23:35:43.944Z,22.70
2023-07-21T23:38:13.595Z,22.60
2023-07-21T23:40:40.876Z,22.60
2023-07-21T23:43:10.354Z,22.60
2023-07-21T23:45:37.602Z,22.60
2023-07-21T23:48:05.545Z,22.60
2023-07-21T23:50:36.133Z,22.60
2023-07-21T23:53:03.890Z,22.60
2023-07-21T23:55:31.421Z,22.60
2023-07-21T23:57:58.893Z,22.60
